首页
METAR-TAF:

METAR-TAF

机场 :

帕罗斯岛, 希腊

纬度: 37-01-15N, 经度: 025-06-46E, 海拔: 38米

当前天气观测

该预报发布于47分钟前的07:50 UTC
风速11节,风向东南
温度 20°C
湿度 73%
气压 1019 hPa
能见度10公里或以上
1500米以下无云,无积雨云

METAR: LGPA 200750Z 13011KT CAVOK 20/15 Q1019 NOSIG

时间: 10:37 (08:37 UTC)


TAF: 丢失

超过4000个机场的气象观测和天气预报(METAR&TAF报告)。

可查询的气象台以黄色和红色小点在地图上表示。

将鼠标移到小点上方,可查看气象台名称。

然后点击查看天气观测和预报。

如需切换地图:点击带黑十字的绿色按钮放大地图;点击带横线的绿色按钮缩小地图;或者点击绿色箭头查看邻近地区的地图。


METAR-TAF: